createdAt,value
2017-03-29T11:27:48.328Z,21.44
2017-03-29T11:28:42.778Z,21.92
2017-03-29T11:29:47.855Z,22.01
2017-03-29T11:30:46.730Z,22.03
2017-03-29T11:31:51.279Z,22.01
2017-03-29T11:32:51.183Z,21.96
2017-03-29T11:33:45.268Z,21.60
2017-03-29T11:34:48.356Z,21.42
2017-03-29T11:35:47.879Z,21.36
2017-03-29T11:36:43.431Z,21.31
2017-03-29T11:37:52.645Z,21.30
2017-03-29T11:38:38.217Z,21.29
2017-03-29T11:39:43.864Z,21.26
2017-03-29T11:40:52.010Z,21.26
2017-03-29T11:41:46.055Z,21.24
2017-03-29T11:42:28.633Z,21.24
2017-03-29T11:43:49.440Z,21.23
2017-03-29T11:44:52.615Z,21.23
2017-03-29T11:45:45.061Z,21.23
2017-03-29T11:46:46.822Z,21.22
2017-03-29T11:47:35.009Z,21.22
2017-03-29T11:48:47.972Z,21.26
2017-03-29T11:50:02.235Z,21.20
2017-03-29T11:50:46.607Z,21.21
2017-03-29T11:51:49.008Z,21.19
2017-03-29T11:53:02.858Z,21.20
2017-03-29T11:53:49.822Z,21.20
2017-03-29T11:54:42.227Z,21.19
2017-03-29T11:55:44.115Z,21.17
2017-03-29T11:56:44.845Z,21.17
2017-03-29T11:57:48.149Z,21.17
2017-03-29T11:58:44.472Z,21.15
2017-03-29T11:59:48.480Z,21.15
2017-03-29T12:00:46.789Z,21.13
2017-03-29T12:01:37.930Z,21.19
2017-03-29T12:02:44.347Z,21.13
2017-03-29T12:03:43.504Z,21.12
2017-03-29T12:04:36.628Z,21.11
2017-03-29T12:05:42.456Z,21.11
2017-03-29T12:06:57.006Z,21.10
2017-03-29T12:07:49.310Z,21.09
2017-03-29T12:08:37.143Z,21.12
2017-03-29T12:09:43.806Z,21.09
2017-03-29T12:10:52.818Z,21.07
2017-03-29T12:11:50.586Z,21.07
2017-03-29T12:12:44.405Z,21.07
2017-03-29T12:13:50.812Z,21.07
2017-03-29T12:15:02.223Z,21.06
2017-03-29T12:15:49.940Z,21.07
2017-03-29T12:16:38.513Z,21.07
2017-03-29T12:17:42.927Z,21.05
2017-03-29T12:18:47.554Z,21.05
2017-03-29T12:19:44.440Z,21.04
2017-03-29T12:20:44.197Z,21.04
2017-03-29T12:21:42.876Z,21.03
2017-03-29T12:22:45.214Z,21.01
2017-03-29T12:23:44.196Z,21.01
2017-03-29T12:24:43.664Z,21.00
2017-03-29T12:25:43.972Z,21.00
2017-03-29T12:26:42.601Z,20.99
2017-03-29T12:27:44.326Z,20.99
2017-03-29T12:28:44.889Z,21.00
2017-03-29T12:29:44.917Z,20.99
2017-03-29T12:30:39.135Z,20.97
2017-03-29T12:31:44.388Z,20.97
2017-03-29T12:32:47.289Z,20.96
2017-03-29T12:33:47.740Z,20.97
2017-03-29T12:34:48.696Z,20.96
2017-03-29T12:35:43.044Z,20.96
2017-03-29T12:36:39.130Z,20.96
2017-03-29T12:37:59.835Z,20.95
2017-03-29T12:38:52.048Z,20.99
2017-03-29T12:39:32.667Z,20.94
2017-03-29T12:40:48.626Z,20.94
2017-03-29T12:41:32.369Z,20.95
2017-03-29T12:42:44.469Z,20.95
2017-03-29T12:43:47.146Z,20.94
2017-03-29T12:44:42.190Z,20.93
2017-03-29T12:45:34.139Z,20.93
2017-03-29T12:46:45.154Z,20.93
2017-03-29T12:47:40.995Z,20.93
2017-03-29T12:48:49.074Z,20.93
2017-03-29T12:49:51.888Z,20.93
2017-03-29T12:50:45.178Z,20.93
2017-03-29T12:51:48.586Z,20.93
2017-03-29T12:52:43.143Z,20.93
2017-03-29T12:53:42.427Z,20.92
2017-03-29T12:54:55.008Z,20.97
2017-03-29T12:55:45.687Z,20.91
2017-03-29T12:56:44.596Z,20.92
2017-03-29T12:57:38.952Z,20.92
2017-03-29T12:58:41.990Z,20.91
2017-03-29T12:59:44.900Z,20.92
2017-03-29T13:00:43.442Z,20.91
2017-03-29T13:01:28.200Z,20.90
2017-03-29T13:02:44.391Z,20.88
2017-03-29T13:03:45.343Z,20.87
2017-03-29T13:04:43.098Z,20.86
2017-03-29T13:05:43.243Z,20.85
2017-03-29T13:06:33.628Z,20.86
2017-03-29T13:07:32.821Z,20.84
2017-03-29T13:08:38.612Z,20.85
2017-03-29T13:09:48.666Z,20.83
2017-03-29T13:10:41.881Z,20.83
2017-03-29T13:11:43.079Z,20.83
2017-03-29T13:12:42.187Z,20.82
2017-03-29T13:13:46.024Z,20.83
2017-03-29T13:14:40.625Z,20.83
2017-03-29T13:15:33.047Z,20.84
2017-03-29T13:16:38.769Z,20.83
2017-03-29T13:17:52.077Z,20.84
2017-03-29T13:18:35.731Z,20.87
2017-03-29T13:20:46.441Z,20.85
2017-03-29T13:21:42.685Z,20.86
2017-03-29T13:22:43.058Z,20.87
2017-03-29T13:23:39.054Z,20.87
2017-03-29T13:24:33.801Z,20.87
2017-03-29T13:25:34.865Z,20.87
2017-03-29T13:26:34.647Z,20.89
2017-03-29T13:27:32.821Z,20.86
2017-03-29T13:28:41.791Z,20.86
2017-03-29T13:29:48.135Z,20.87
2017-03-29T13:30:33.481Z,20.86
2017-03-29T13:31:27.985Z,20.86
2017-03-29T13:32:44.180Z,21.40
2017-03-29T13:33:38.337Z,21.46
2017-03-29T13:34:43.274Z,21.00
2017-03-29T13:35:33.339Z,20.92
2017-03-29T13:36:38.871Z,20.87
2017-03-29T13:37:42.347Z,20.86
2017-03-29T13:38:42.411Z,20.85
2017-03-29T13:39:43.296Z,20.86
2017-03-29T13:40:43.562Z,21.41
2017-03-29T13:41:56.585Z,20.94
2017-03-29T13:42:35.364Z,20.89
2017-03-29T13:43:55.498Z,20.87
2017-03-29T13:44:55.005Z,20.87
2017-03-29T13:45:47.255Z,20.87
2017-03-29T13:46:40.958Z,20.86
2017-03-29T13:47:32.586Z,20.87
2017-03-29T13:48:32.420Z,20.86
2017-03-29T13:49:33.258Z,20.86
2017-03-29T13:50:48.797Z,21.40
2017-03-29T13:51:36.841Z,21.46
2017-03-29T13:52:45.003Z,21.49
2017-03-29T13:53:38.169Z,21.50
2017-03-29T13:54:37.912Z,21.50
2017-03-29T13:55:43.013Z,21.52
2017-03-29T13:56:37.761Z,20.97
2017-03-29T13:57:43.416Z,20.98
2017-03-29T13:58:34.212Z,20.90
2017-03-29T13:59:46.390Z,20.89
2017-03-29T14:00:32.366Z,20.88
2017-03-29T14:01:33.708Z,20.87
2017-03-29T14:02:44.389Z,20.87
2017-03-29T14:03:32.529Z,20.87
2017-03-29T14:04:44.294Z,20.88
2017-03-29T14:05:39.166Z,20.87
2017-03-29T14:06:46.745Z,20.87
2017-03-29T14:07:36.168Z,20.87
2017-03-29T14:08:39.682Z,20.88
2017-03-29T14:09:48.573Z,20.88
2017-03-29T14:10:39.949Z,20.88
2017-03-29T14:11:43.121Z,20.87
2017-03-29T14:12:33.331Z,20.87
2017-03-29T14:13:33.241Z,20.87
2017-03-29T14:14:48.844Z,20.87
2017-03-29T14:15:42.685Z,20.87
2017-03-29T14:16:46.344Z,20.87
2017-03-29T14:17:40.041Z,20.89
2017-03-29T14:18:38.341Z,20.87
2017-03-29T14:19:34.270Z,20.86
2017-03-29T14:20:39.362Z,20.87
2017-03-29T14:21:33.859Z,20.86
2017-03-29T14:22:44.088Z,20.87
2017-03-29T14:23:38.507Z,20.87
2017-03-29T14:24:47.933Z,21.42
2017-03-29T14:25:42.290Z,21.48
2017-03-29T14:26:32.890Z,21.51
2017-03-29T14:27:32.575Z,21.52
2017-03-29T14:28:36.895Z,20.98
2017-03-29T14:29:47.108Z,20.93
2017-03-29T14:30:46.119Z,20.91
2017-03-29T14:31:41.898Z,20.89
2017-03-29T14:32:34.508Z,20.89
2017-03-29T14:33:43.264Z,20.87
2017-03-29T14:34:32.479Z,20.87
2017-03-29T14:35:41.563Z,20.87
2017-03-29T14:36:50.972Z,20.86
2017-03-29T14:37:43.058Z,20.87
2017-03-29T14:38:41.985Z,20.86
2017-03-29T14:39:54.188Z,20.86
2017-03-29T14:40:43.190Z,20.86
2017-03-29T14:41:37.290Z,20.88
2017-03-29T14:42:39.779Z,20.87
2017-03-29T14:43:34.417Z,20.86
2017-03-29T14:44:41.867Z,20.87
2017-03-29T14:45:29.464Z,20.87
2017-03-29T14:46:49.799Z,20.87
2017-03-29T14:47:43.871Z,20.87
2017-03-29T14:48:42.469Z,20.87
2017-03-29T14:49:47.566Z,20.89
2017-03-29T14:50:34.321Z,20.88
2017-03-29T14:51:27.704Z,20.88
2017-03-29T14:52:33.196Z,20.87
2017-03-29T14:53:34.288Z,20.96
2017-03-29T14:54:40.485Z,20.88
2017-03-29T14:55:39.258Z,20.89
2017-03-29T14:56:32.018Z,20.89
2017-03-29T14:57:39.298Z,20.89
2017-03-29T14:58:39.182Z,20.90
2017-03-29T14:59:39.369Z,20.89
2017-03-29T15:00:33.189Z,20.94
2017-03-29T15:01:48.999Z,20.94
2017-03-29T15:02:33.108Z,20.90
2017-03-29T15:03:41.652Z,20.91
2017-03-29T15:04:33.842Z,20.91
2017-03-29T15:05:28.712Z,20.91
2017-03-29T15:06:43.345Z,20.91
2017-03-29T15:07:48.054Z,20.91
2017-03-29T15:08:32.773Z,20.90
2017-03-29T15:09:32.939Z,20.91
2017-03-29T15:10:41.445Z,20.91
2017-03-29T15:11:32.899Z,20.96
2017-03-29T15:12:47.479Z,20.92
2017-03-29T15:13:33.547Z,20.91
2017-03-29T15:14:34.287Z,20.98
2017-03-29T15:15:34.851Z,20.92
2017-03-29T15:16:33.872Z,20.93
2017-03-29T15:17:34.551Z,20.93
2017-03-29T15:18:39.308Z,20.95
2017-03-29T15:19:38.454Z,21.01
2017-03-29T15:20:43.349Z,20.94
2017-03-29T15:21:39.552Z,20.96
2017-03-29T15:22:46.622Z,20.96
2017-03-29T15:23:33.458Z,21.03
2017-03-29T15:24:33.635Z,20.97
2017-03-29T15:25:41.182Z,20.98
2017-03-29T15:26:34.708Z,20.98
2017-03-29T15:27:39.242Z,20.99
2017-03-29T15:28:40.210Z,21.00
2017-03-29T15:29:39.888Z,21.01
2017-03-29T15:30:32.537Z,21.01
2017-03-29T15:31:43.813Z,21.01
2017-03-29T15:32:33.770Z,21.02
2017-03-29T15:33:33.318Z,21.02
2017-03-29T15:34:39.357Z,21.03
2017-03-29T15:35:34.066Z,21.03
2017-03-29T15:36:39.406Z,21.04
2017-03-29T15:37:35.530Z,21.05
2017-03-29T15:38:35.012Z,21.06
2017-03-29T15:39:34.363Z,21.06
2017-03-29T15:40:42.279Z,21.06
2017-03-29T15:41:42.219Z,21.07
2017-03-29T15:42:42.165Z,21.07
2017-03-29T15:43:39.542Z,21.07
2017-03-29T15:44:33.422Z,21.08
2017-03-29T15:45:34.401Z,21.09
2017-03-29T15:46:40.193Z,21.09
2017-03-29T15:47:40.581Z,21.09
2017-03-29T15:48:39.406Z,21.10
2017-03-29T15:49:58.343Z,21.10
2017-03-29T15:50:42.514Z,21.11
2017-03-29T15:51:43.728Z,21.11
2017-03-29T15:52:39.271Z,21.15
2017-03-29T15:53:37.831Z,21.12
2017-03-29T15:54:40.234Z,21.12
2017-03-29T15:55:43.677Z,21.13
2017-03-29T15:56:34.038Z,21.13
2017-03-29T15:57:43.428Z,21.14
2017-03-29T15:58:39.139Z,21.14
2017-03-29T15:59:41.835Z,21.14
2017-03-29T16:00:34.352Z,21.15
2017-03-29T16:01:44.143Z,21.14
2017-03-29T16:02:43.197Z,21.15
2017-03-29T16:03:32.447Z,21.15
2017-03-29T16:04:45.839Z,21.14
2017-03-29T16:05:32.820Z,21.15
2017-03-29T16:06:32.811Z,21.16
2017-03-29T16:07:37.979Z,21.15
2017-03-29T16:08:53.518Z,21.13
2017-03-29T16:09:49.200Z,21.12
2017-03-29T16:10:33.310Z,21.11
2017-03-29T16:11:35.398Z,21.09
2017-03-29T16:12:41.448Z,21.08
2017-03-29T16:13:43.213Z,21.07
2017-03-29T16:14:45.117Z,21.06
2017-03-29T16:15:35.113Z,21.05
2017-03-29T16:16:32.399Z,21.04
2017-03-29T16:17:39.805Z,21.03
2017-03-29T16:18:42.643Z,21.56
2017-03-29T16:19:39.526Z,21.62
2017-03-29T16:20:33.394Z,21.26
2017-03-29T16:21:41.204Z,21.10
2017-03-29T16:22:33.396Z,21.06
2017-03-29T16:23:42.045Z,21.03
2017-03-29T16:24:34.727Z,21.01
2017-03-29T16:25:39.170Z,21.00
2017-03-29T16:26:34.734Z,21.00
2017-03-29T16:27:33.422Z,20.99
2017-03-29T16:28:37.091Z,20.98
2017-03-29T16:29:34.128Z,20.98
2017-03-29T16:30:39.368Z,20.98
2017-03-29T16:31:39.346Z,20.97
2017-03-29T16:32:33.407Z,21.51
2017-03-29T16:33:37.451Z,21.03
2017-03-29T16:34:54.891Z,21.00
2017-03-29T16:35:15.823Z,20.99
2017-03-29T16:36:34.275Z,20.98
2017-03-29T16:37:35.466Z,20.97
2017-03-29T16:38:29.333Z,21.03
2017-03-29T16:39:12.973Z,20.96
2017-03-29T16:40:22.033Z,21.50
2017-03-29T16:41:17.478Z,21.56
2017-03-29T16:42:24.823Z,21.22
2017-03-29T16:43:23.633Z,21.06
2017-03-29T16:44:33.344Z,21.00
2017-03-29T16:45:34.782Z,20.98
2017-03-29T16:46:28.087Z,20.97
2017-03-29T16:47:34.066Z,20.97
2017-03-29T16:48:32.820Z,20.95
2017-03-29T16:49:42.089Z,20.94
2017-03-29T16:50:28.030Z,20.94
2017-03-29T16:51:33.486Z,20.94
2017-03-29T16:52:31.627Z,20.94
2017-03-29T16:53:41.011Z,20.94
2017-03-29T16:54:41.484Z,20.94
2017-03-29T16:55:57.962Z,20.93
2017-03-29T16:56:51.650Z,20.93
2017-03-29T16:57:41.802Z,20.93
2017-03-29T16:58:22.273Z,20.93
2017-03-29T16:59:39.322Z,20.93
2017-03-29T17:00:30.003Z,20.92
2017-03-29T17:01:32.950Z,20.92
2017-03-29T17:02:40.158Z,20.92
2017-03-29T17:03:29.817Z,20.92
2017-03-29T17:04:38.299Z,20.92
2017-03-29T17:05:34.423Z,20.96
2017-03-29T17:06:42.353Z,20.96
2017-03-29T17:08:39.807Z,20.91
2017-03-29T17:09:21.052Z,20.91
2017-03-29T17:10:26.604Z,20.92
2017-03-29T17:11:27.944Z,20.91
2017-03-29T17:12:21.973Z,20.91
2017-03-29T17:14:45.030Z,20.91
2017-03-29T17:15:44.924Z,20.91
2017-03-29T17:16:41.050Z,20.91
2017-03-29T17:17:41.818Z,20.91
2017-03-29T17:18:40.603Z,20.91
2017-03-29T17:19:36.892Z,20.90
2017-03-29T17:20:39.626Z,20.91
2017-03-29T17:21:33.491Z,20.91
2017-03-29T17:23:26.747Z,20.90
2017-03-29T17:23:32.589Z,20.91
2017-03-29T17:24:40.666Z,20.91
2017-03-29T17:25:41.670Z,20.90
2017-03-29T17:26:42.729Z,20.91
2017-03-29T17:27:41.725Z,20.90
2017-03-29T17:28:34.449Z,20.90
2017-03-29T17:29:40.663Z,20.90
2017-03-29T17:30:41.228Z,20.90
2017-03-29T17:31:33.467Z,20.89
2017-03-29T17:32:35.916Z,20.90
2017-03-29T17:33:31.810Z,20.90
2017-03-29T17:34:47.124Z,20.88
2017-03-29T17:35:38.385Z,20.90
2017-03-29T17:36:33.930Z,20.90
2017-03-29T17:37:38.588Z,20.90
2017-03-29T17:38:32.863Z,20.90
2017-03-29T17:39:33.435Z,20.89
2017-03-29T17:40:34.566Z,20.89
2017-03-29T17:41:34.574Z,20.90
2017-03-29T17:42:32.968Z,20.89
2017-03-29T17:43:43.605Z,21.06
2017-03-29T17:44:32.157Z,20.94
2017-03-29T17:45:33.174Z,20.94
2017-03-29T17:46:47.387Z,20.90
2017-03-29T17:47:39.214Z,20.89
2017-03-29T17:48:48.777Z,20.89
2017-03-29T17:49:33.583Z,20.89
2017-03-29T17:50:33.502Z,20.89
2017-03-29T17:51:34.668Z,20.96
2017-03-29T17:52:34.015Z,20.89
2017-03-29T17:53:44.795Z,20.88
2017-03-29T17:54:34.106Z,20.89
2017-03-29T17:55:41.053Z,20.89
2017-03-29T17:56:32.282Z,20.89
2017-03-29T17:57:33.201Z,20.89
2017-03-29T17:58:41.059Z,20.89
2017-03-29T17:59:27.422Z,20.89
2017-03-29T18:00:14.173Z,20.89
2017-03-29T18:01:39.299Z,20.89
2017-03-29T18:02:34.412Z,20.89
2017-03-29T18:03:29.184Z,20.89
2017-03-29T18:04:28.221Z,20.89
2017-03-29T18:05:24.979Z,20.89
2017-03-29T18:06:32.820Z,20.93
2017-03-29T18:07:28.659Z,20.88
2017-03-29T18:08:27.519Z,20.89
2017-03-29T18:09:33.445Z,20.89
2017-03-29T18:10:41.129Z,20.89
2017-03-29T18:11:33.155Z,20.89
2017-03-29T18:12:39.670Z,20.89
2017-03-29T18:13:41.703Z,20.88
2017-03-29T18:14:33.449Z,20.89
2017-03-29T18:15:32.186Z,20.89
2017-03-29T18:16:33.517Z,20.88
2017-03-29T18:17:27.357Z,20.88
2017-03-29T18:18:33.755Z,20.88
2017-03-29T18:19:33.248Z,20.88
2017-03-29T18:20:34.063Z,20.88
2017-03-29T18:21:45.998Z,20.88
2017-03-29T18:22:34.946Z,20.88
2017-03-29T18:23:23.305Z,20.88
2017-03-29T18:24:33.426Z,20.89
2017-03-29T18:25:33.961Z,20.88
2017-03-29T18:26:30.095Z,20.89
2017-03-29T18:27:39.699Z,20.89
2017-03-29T18:28:33.084Z,20.89
2017-03-29T18:29:32.409Z,20.88
2017-03-29T18:30:32.980Z,20.88
2017-03-29T18:31:43.761Z,20.88
2017-03-29T18:32:35.110Z,20.96
2017-03-29T18:33:34.278Z,21.42
2017-03-29T18:34:34.271Z,21.48
2017-03-29T18:35:34.108Z,21.52
2017-03-29T18:36:33.550Z,21.53
2017-03-29T18:37:32.909Z,21.54
2017-03-29T18:38:42.639Z,21.53
2017-03-29T18:39:32.696Z,21.54
2017-03-29T18:40:32.966Z,21.55
2017-03-29T18:41:33.184Z,21.18
2017-03-29T18:42:32.352Z,21.01
2017-03-29T18:43:39.839Z,20.95
2017-03-29T18:44:31.058Z,20.93
2017-03-29T18:45:41.634Z,20.91
2017-03-29T18:46:34.911Z,20.90
2017-03-29T18:47:39.219Z,20.89
2017-03-29T18:48:46.418Z,20.89
2017-03-29T18:49:40.204Z,20.89
2017-03-29T18:50:41.647Z,20.88
2017-03-29T18:51:27.558Z,20.95
2017-03-29T18:52:33.473Z,20.89
2017-03-29T18:53:43.385Z,20.88
2017-03-29T18:54:34.796Z,20.88
2017-03-29T18:55:32.668Z,20.88
2017-03-29T18:56:41.718Z,20.87
2017-03-29T18:57:35.074Z,20.88
2017-03-29T18:58:41.594Z,20.88
2017-03-29T18:59:43.577Z,20.87
2017-03-29T19:00:33.694Z,20.88
2017-03-29T19:01:37.968Z,20.87
2017-03-29T19:02:25.826Z,20.87
2017-03-29T19:03:16.150Z,20.87
2017-03-29T19:04:22.019Z,20.87
2017-03-29T19:05:15.263Z,20.88
2017-03-29T19:06:19.871Z,20.87
2017-03-29T19:07:16.118Z,20.87
2017-03-29T19:08:11.347Z,20.87
2017-03-29T19:09:23.211Z,20.86
2017-03-29T19:10:22.586Z,20.87
2017-03-29T19:11:16.124Z,20.87
2017-03-29T19:12:17.306Z,20.87
2017-03-29T19:13:18.978Z,20.89
2017-03-29T19:14:15.439Z,20.84
2017-03-29T19:15:14.471Z,20.87
2017-03-29T19:16:19.559Z,20.93
2017-03-29T19:17:16.072Z,20.94
2017-03-29T19:18:16.511Z,20.87
2017-03-29T19:19:15.302Z,20.87
2017-03-29T19:20:13.803Z,20.86
2017-03-29T19:21:14.133Z,20.87
2017-03-29T19:22:12.844Z,21.41
2017-03-29T19:23:13.443Z,21.47
2017-03-29T19:24:15.611Z,21.14
2017-03-29T19:25:14.840Z,20.96
2017-03-29T19:26:16.406Z,20.92
2017-03-29T19:27:14.976Z,20.90
2017-03-29T19:28:15.290Z,20.90
2017-03-29T19:29:23.008Z,20.89
2017-03-29T19:30:17.292Z,20.87
2017-03-29T19:31:19.987Z,20.88
2017-03-29T19:32:19.470Z,20.87
2017-03-29T19:33:14.991Z,20.94
2017-03-29T19:34:17.564Z,21.41
2017-03-29T19:35:14.438Z,21.46
2017-03-29T19:36:16.227Z,21.13
2017-03-29T19:37:16.979Z,20.96
2017-03-29T19:38:14.615Z,20.91
2017-03-29T19:39:14.266Z,20.90
2017-03-29T19:40:16.885Z,20.93
2017-03-29T19:41:14.160Z,20.87
2017-03-29T19:42:17.630Z,20.88
2017-03-29T19:43:20.033Z,20.87
2017-03-29T19:44:13.863Z,20.87
2017-03-29T19:45:13.573Z,20.92
2017-03-29T19:46:16.252Z,20.86
2017-03-29T19:47:17.197Z,20.87
2017-03-29T19:48:17.513Z,20.94
2017-03-29T19:49:26.966Z,20.86
2017-03-29T19:50:16.769Z,20.86
2017-03-29T19:51:20.496Z,20.86
2017-03-29T19:52:17.772Z,20.86
2017-03-29T19:53:18.810Z,20.87
2017-03-29T19:54:13.375Z,20.86
2017-03-29T19:55:14.977Z,20.86
2017-03-29T19:56:15.534Z,20.86
2017-03-29T19:57:15.706Z,20.87
2017-03-29T19:58:21.811Z,20.86
2017-03-29T19:59:23.499Z,20.86
2017-03-29T20:00:13.728Z,20.87
2017-03-29T20:01:15.153Z,20.88
2017-03-29T20:02:18.100Z,20.86
2017-03-29T20:03:15.219Z,20.92
2017-03-29T20:04:18.837Z,20.86
2017-03-29T20:05:16.233Z,20.87
2017-03-29T20:06:13.535Z,20.87
2017-03-29T20:07:14.193Z,20.86
2017-03-29T20:08:17.468Z,20.86
2017-03-29T20:09:13.486Z,20.86
2017-03-29T20:10:15.338Z,21.39
2017-03-29T20:11:19.063Z,21.46
2017-03-29T20:12:16.246Z,21.48
2017-03-29T20:13:11.942Z,20.96
2017-03-29T20:14:18.273Z,21.47
2017-03-29T20:15:15.523Z,21.48
2017-03-29T20:16:17.499Z,21.51
2017-03-29T20:17:14.894Z,21.17
2017-03-29T20:18:14.891Z,20.96
2017-03-29T20:19:12.763Z,20.92
2017-03-29T20:20:16.059Z,20.94
2017-03-29T20:21:12.820Z,20.89
2017-03-29T20:22:13.053Z,20.92
2017-03-29T20:23:13.705Z,20.87
2017-03-29T20:24:15.989Z,20.86
2017-03-29T20:25:14.984Z,20.86
2017-03-29T20:26:13.300Z,20.86
2017-03-29T20:27:16.803Z,20.86
2017-03-29T20:28:17.570Z,20.86
2017-03-29T20:29:14.324Z,20.86
2017-03-29T20:30:16.700Z,20.86
2017-03-29T20:31:17.686Z,20.86
2017-03-29T20:32:17.514Z,20.85
2017-03-29T20:33:16.613Z,20.86
2017-03-29T20:34:15.939Z,20.86
2017-03-29T20:35:15.322Z,20.86
2017-03-29T20:36:26.645Z,20.88
2017-03-29T20:37:20.217Z,20.86
2017-03-29T20:38:21.028Z,20.86
2017-03-29T20:39:16.153Z,20.86
2017-03-29T20:40:27.496Z,20.85
2017-03-29T20:41:44.542Z,21.40
2017-03-29T20:42:34.581Z,21.46
2017-03-29T20:44:36.152Z,21.51
2017-03-29T20:45:34.429Z,21.50
2017-03-29T20:46:34.369Z,20.98
2017-03-29T20:47:38.449Z,20.92
2017-03-29T20:48:27.300Z,20.89
2017-03-29T20:49:34.069Z,20.89
2017-03-29T20:50:30.334Z,20.87
2017-03-29T20:51:33.854Z,20.87
2017-03-29T20:52:32.694Z,20.86
2017-03-29T20:53:25.197Z,20.86
2017-03-29T20:54:21.186Z,20.86
2017-03-29T20:55:33.365Z,20.86
2017-03-29T20:56:18.966Z,20.85
2017-03-29T20:57:19.348Z,20.85
2017-03-29T20:58:33.418Z,20.86
2017-03-29T20:59:32.780Z,20.86
2017-03-29T21:00:38.675Z,20.85
2017-03-29T21:01:27.004Z,20.85
2017-03-29T21:02:18.885Z,20.85
2017-03-29T21:03:27.991Z,20.84
2017-03-29T21:04:28.390Z,20.85
2017-03-29T21:05:18.250Z,20.91
2017-03-29T21:06:41.406Z,20.86
2017-03-29T21:07:27.810Z,20.85
2017-03-29T21:08:28.194Z,20.85
2017-03-29T21:09:28.299Z,20.86
2017-03-29T21:10:33.610Z,20.85
2017-03-29T21:11:33.188Z,20.85
2017-03-29T21:12:26.957Z,20.86
2017-03-29T21:13:33.898Z,20.86
2017-03-29T21:14:32.420Z,20.86
2017-03-29T21:15:33.988Z,20.86
2017-03-29T21:16:33.997Z,20.86
2017-03-29T21:17:33.435Z,20.85
2017-03-29T21:18:29.133Z,20.85
2017-03-29T21:19:39.834Z,20.85
2017-03-29T21:20:34.464Z,20.85
2017-03-29T21:21:42.616Z,20.85
2017-03-29T21:22:34.603Z,20.85
2017-03-29T21:23:32.837Z,20.89
2017-03-29T21:24:34.052Z,20.85
2017-03-29T21:25:54.662Z,20.85
2017-03-29T21:26:33.397Z,20.85
2017-03-29T21:27:40.179Z,20.85
2017-03-29T21:28:46.084Z,20.86
2017-03-29T21:29:34.412Z,20.85
2017-03-29T21:30:39.462Z,20.85
2017-03-29T21:31:33.659Z,20.85
2017-03-29T21:32:39.048Z,20.85
2017-03-29T21:33:34.887Z,20.84
2017-03-29T21:34:32.969Z,20.88
2017-03-29T21:35:32.993Z,20.85
2017-03-29T21:36:32.946Z,21.40
2017-03-29T21:37:33.763Z,21.11
2017-03-29T21:38:39.112Z,20.93
2017-03-29T21:39:33.344Z,20.90
2017-03-29T21:40:34.619Z,20.88
2017-03-29T21:41:34.148Z,20.87
2017-03-29T21:42:34.264Z,20.86
2017-03-29T21:43:32.375Z,20.86
2017-03-29T21:44:32.720Z,20.86
2017-03-29T21:45:31.891Z,20.91
2017-03-29T21:46:32.882Z,20.86
2017-03-29T21:47:42.160Z,21.40
2017-03-29T21:48:38.181Z,20.91
2017-03-29T21:49:33.725Z,20.88
2017-03-29T21:50:33.390Z,20.92
2017-03-29T21:51:35.199Z,20.85
2017-03-29T21:52:34.022Z,20.86
2017-03-29T21:53:22.005Z,20.86
2017-03-29T21:54:32.252Z,20.85
2017-03-29T21:55:33.774Z,20.85
2017-03-29T21:56:31.346Z,20.85
2017-03-29T21:57:37.182Z,20.85
2017-03-29T21:58:47.388Z,20.85
2017-03-29T21:59:43.820Z,20.85
2017-03-29T22:00:41.192Z,20.85
2017-03-29T22:01:26.729Z,20.85
2017-03-29T22:02:33.805Z,20.85
2017-03-29T22:03:34.044Z,20.85
2017-03-29T22:04:34.263Z,20.85
2017-03-29T22:05:34.045Z,20.85
2017-03-29T22:06:23.370Z,20.84
2017-03-29T22:07:32.586Z,20.85
2017-03-29T22:08:42.528Z,20.84
2017-03-29T22:09:33.427Z,20.85
2017-03-29T22:10:42.861Z,20.85
2017-03-29T22:11:43.429Z,20.84
2017-03-29T22:12:43.682Z,20.85
2017-03-29T22:13:41.417Z,20.84
2017-03-29T22:14:39.394Z,20.85
2017-03-29T22:15:33.051Z,20.85
2017-03-29T22:16:35.158Z,20.84
2017-03-29T22:17:33.737Z,20.85
2017-03-29T22:18:43.442Z,20.85
2017-03-29T22:19:37.962Z,20.85
2017-03-29T22:20:47.144Z,20.85
2017-03-29T22:21:49.359Z,20.84
2017-03-29T22:22:43.307Z,20.85
2017-03-29T22:23:36.587Z,20.85
2017-03-29T22:24:41.040Z,20.92
2017-03-29T22:25:39.217Z,20.85
2017-03-29T22:26:34.771Z,20.85
2017-03-29T22:27:39.214Z,20.85
2017-03-29T22:28:39.460Z,20.85
2017-03-29T22:29:32.537Z,20.84
2017-03-29T22:30:33.172Z,20.84
2017-03-29T22:31:34.033Z,20.89
2017-03-29T22:32:33.168Z,20.85
2017-03-29T22:33:34.025Z,20.85
2017-03-29T22:34:33.351Z,20.84
2017-03-29T22:35:43.474Z,20.90
2017-03-29T22:36:42.205Z,20.85
2017-03-29T22:37:39.118Z,20.85
2017-03-29T22:38:35.027Z,20.85
2017-03-29T22:39:33.818Z,20.85
2017-03-29T22:40:32.972Z,20.85
2017-03-29T22:41:33.370Z,20.84
2017-03-29T22:42:42.017Z,20.85
2017-03-29T22:43:46.340Z,20.84
2017-03-29T22:44:39.779Z,20.84
2017-03-29T22:45:33.496Z,20.91
2017-03-29T22:46:34.069Z,20.85
2017-03-29T22:47:34.912Z,20.84
2017-03-29T22:48:39.112Z,20.84
2017-03-29T22:49:47.285Z,20.85
2017-03-29T22:50:43.481Z,20.85
2017-03-29T22:51:39.204Z,20.84
2017-03-29T22:52:43.098Z,20.83
2017-03-29T22:53:34.342Z,20.84
2017-03-29T22:54:43.499Z,20.89
2017-03-29T22:55:43.073Z,20.84
2017-03-29T22:56:45.521Z,20.84
2017-03-29T22:57:40.562Z,20.84
2017-03-29T22:58:45.889Z,20.84
2017-03-29T22:59:40.138Z,20.84
2017-03-29T23:00:35.360Z,20.84
2017-03-29T23:01:34.885Z,20.84
2017-03-29T23:02:45.706Z,20.83
2017-03-29T23:03:33.433Z,20.84
2017-03-29T23:04:37.607Z,20.83
2017-03-29T23:05:34.072Z,20.84
2017-03-29T23:06:39.430Z,20.84
2017-03-29T23:07:34.032Z,20.84
2017-03-29T23:08:39.822Z,20.84
2017-03-29T23:09:40.674Z,20.84
2017-03-29T23:10:33.617Z,20.84
2017-03-29T23:11:35.014Z,20.84
2017-03-29T23:12:34.779Z,20.84
2017-03-29T23:13:35.147Z,20.84
2017-03-29T23:14:32.780Z,20.84
2017-03-29T23:15:44.371Z,20.84
2017-03-29T23:16:33.650Z,20.83
2017-03-29T23:17:33.596Z,20.87
2017-03-29T23:18:32.779Z,21.39
2017-03-29T23:19:43.444Z,21.43
2017-03-29T23:20:34.867Z,21.45
2017-03-29T23:21:37.326Z,21.48
2017-03-29T23:22:34.697Z,20.95
2017-03-29T23:23:34.032Z,20.90
2017-03-29T23:24:48.660Z,20.87
2017-03-29T23:25:38.168Z,20.86
2017-03-29T23:26:42.912Z,20.85
2017-03-29T23:27:42.258Z,20.84
2017-03-29T23:28:39.770Z,20.84
2017-03-29T23:29:42.752Z,20.85
2017-03-29T23:30:43.386Z,20.84
2017-03-29T23:31:49.244Z,20.84
2017-03-29T23:32:34.022Z,20.85
2017-03-29T23:33:46.457Z,20.85
2017-03-29T23:34:32.363Z,20.84
2017-03-29T23:35:39.865Z,20.84
2017-03-29T23:36:32.486Z,20.84
2017-03-29T23:37:33.575Z,20.84
2017-03-29T23:38:34.113Z,20.84
2017-03-29T23:39:33.856Z,20.89
2017-03-29T23:40:34.220Z,20.83
2017-03-29T23:41:35.274Z,20.84
2017-03-29T23:42:40.599Z,20.84
2017-03-29T23:43:30.283Z,20.84
2017-03-29T23:44:34.792Z,20.84
2017-03-29T23:45:35.136Z,20.84
2017-03-29T23:46:45.320Z,20.84
2017-03-29T23:47:40.186Z,20.84
2017-03-29T23:48:28.003Z,20.84
2017-03-29T23:49:32.958Z,20.84
2017-03-29T23:50:47.156Z,20.84
2017-03-29T23:51:41.868Z,20.84
2017-03-29T23:52:34.020Z,20.84
2017-03-29T23:53:39.289Z,20.85
2017-03-29T23:54:47.244Z,20.84
2017-03-29T23:55:53.418Z,20.85
2017-03-29T23:56:37.623Z,20.84
2017-03-29T23:57:39.296Z,20.84
2017-03-29T23:58:33.154Z,20.84
2017-03-29T23:59:34.322Z,20.84
